sensor_id;sensor_type;location;lat;lon;timestamp;pressure;altitude;pressure_sealevel;temperature;humidity
46392;BME280;32098;49.448;7.904;2023-04-22T00:04:51;97269.88;;;7.56;86.68
46392;BME280;32098;49.448;7.904;2023-04-22T00:11:13;97471.56;;;8.90;86.37
46392;BME280;32098;49.448;7.904;2023-04-22T00:17:47;97409.81;;;8.37;86.38
46392;BME280;32098;49.448;7.904;2023-04-22T00:20:14;97493.13;;;8.66;86.92
46392;BME280;32098;49.448;7.904;2023-04-22T00:22:41;97496.03;;;8.64;87.42
46392;BME280;32098;49.448;7.904;2023-04-22T00:31:55;97391.34;;;8.19;87.10
46392;BME280;32098;49.448;7.904;2023-04-22T00:34:32;97349.91;;;7.71;87.37
46392;BME280;32098;49.448;7.904;2023-04-22T00:36:59;97484.34;;;8.65;87.09
46392;BME280;32098;49.448;7.904;2023-04-22T00:39:26;97461.91;;;8.61;87.08
46392;BME280;32098;49.448;7.904;2023-04-22T00:41:55;97184.31;;;6.85;87.18
46392;BME280;32098;49.448;7.904;2023-04-22T00:44:27;97404.53;;;8.14;87.20
46392;BME280;32098;49.448;7.904;2023-04-22T00:46:54;97257.97;;;6.89;87.79
46392;BME280;32098;49.448;7.904;2023-04-22T00:49:22;97270.47;;;7.23;87.38
46392;BME280;32098;49.448;7.904;2023-04-22T00:51:49;97444.97;;;8.27;87.18
46392;BME280;32098;49.448;7.904;2023-04-22T00:54:51;97484.13;;;8.67;86.82
46392;BME280;32098;49.448;7.904;2023-04-22T00:57:19;97426.47;;;8.21;86.91
46392;BME280;32098;49.448;7.904;2023-04-22T00:59:46;97212.00;;;6.77;86.74
46392;BME280;32098;49.448;7.904;2023-04-22T01:02:13;97424.78;;;8.15;87.38
46392;BME280;32098;49.448;7.904;2023-04-22T01:04:41;97429.38;;;8.19;87.25
46392;BME280;32098;49.448;7.904;2023-04-22T01:07:39;97481.25;;;8.56;87.12
46392;BME280;32098;49.448;7.904;2023-04-22T01:10:06;97425.94;;;8.07;86.16
46392;BME280;32098;49.448;7.904;2023-04-22T01:12:34;97326.22;;;7.58;86.14
46392;BME280;32098;49.448;7.904;2023-04-22T01:15:01;97507.88;;;8.68;85.82
46392;BME280;32098;49.448;7.904;2023-04-22T01:17:30;97236.38;;;7.09;86.15
46392;BME280;32098;49.448;7.904;2023-04-22T01:19:59;97487.63;;;8.44;87.01
46392;BME280;32098;49.448;7.904;2023-04-22T01:26:27;97443.72;;;8.18;87.77
46392;BME280;32098;49.448;7.904;2023-04-22T01:36:49;97343.78;;;7.36;88.70
46392;BME280;32098;49.448;7.904;2023-04-22T01:39:16;97447.53;;;8.11;88.06
46392;BME280;32098;49.448;7.904;2023-04-22T01:41:43;97399.44;;;7.77;88.07
46392;BME280;32098;49.448;7.904;2023-04-22T01:44:37;97472.97;;;8.07;89.23
46392;BME280;32098;49.448;7.904;2023-04-22T01:47:04;97367.72;;;7.06;90.22
46392;BME280;32098;49.448;7.904;2023-04-22T01:49:33;97362.91;;;7.15;90.14
46392;BME280;32098;49.448;7.904;2023-04-22T01:52:00;97401.06;;;7.44;90.49
46392;BME280;32098;49.448;7.904;2023-04-22T01:54:27;97332.41;;;7.06;90.45
46392;BME280;32098;49.448;7.904;2023-04-22T01:56:54;97479.44;;;8.11;90.17
46392;BME280;32098;49.448;7.904;2023-04-22T01:59:21;97487.88;;;8.19;89.00
46392;BME280;32098;49.448;7.904;2023-04-22T02:05:49;97390.47;;;7.67;88.28
46392;BME280;32098;49.448;7.904;2023-04-22T02:08:16;97325.41;;;7.23;88.33
46392;BME280;32098;49.448;7.904;2023-04-22T02:10:45;97357.63;;;7.38;87.92
46392;BME280;32098;49.448;7.904;2023-04-22T02:13:11;97090.47;;;5.75;88.30
46392;BME280;32098;49.448;7.904;2023-04-22T02:15:38;97301.81;;;7.03;88.34
46392;BME280;32098;49.448;7.904;2023-04-22T02:18:07;97338.44;;;7.13;89.26
46392;BME280;32098;49.448;7.904;2023-04-22T02:20:36;97494.22;;;7.95;89.74
46392;BME280;32098;49.448;7.904;2023-04-22T02:23:18;97434.38;;;7.69;89.90
46392;BME280;32098;49.448;7.904;2023-04-22T02:25:49;97271.88;;;6.61;89.04
46392;BME280;32098;49.448;7.904;2023-04-22T02:28:17;97089.53;;;5.39;88.92
46392;BME280;32098;49.448;7.904;2023-04-22T02:30:45;97372.19;;;7.24;89.15
46392;BME280;32098;49.448;7.904;2023-04-22T02:33:13;97214.09;;;6.22;88.57
46392;BME280;32098;49.448;7.904;2023-04-22T02:36:08;97192.78;;;6.17;88.46
46392;BME280;32098;49.448;7.904;2023-04-22T02:38:35;97428.81;;;7.59;88.60
46392;BME280;32098;49.448;7.904;2023-04-22T02:44:31;97499.00;;;8.05;87.74
46392;BME280;32098;49.448;7.904;2023-04-22T02:46:58;97496.78;;;8.02;87.62
46392;BME280;32098;49.448;7.904;2023-04-22T02:49:25;97373.13;;;7.00;87.92
46392;BME280;32098;49.448;7.904;2023-04-22T02:51:52;97237.13;;;6.10;87.76
46392;BME280;32098;49.448;7.904;2023-04-22T02:54:19;97549.72;;;7.91;87.99
46392;BME280;32098;49.448;7.904;2023-04-22T02:56:46;97247.81;;;6.33;87.26
46392;BME280;32098;49.448;7.904;2023-04-22T02:59:13;97448.19;;;7.48;87.51
46392;BME280;32098;49.448;7.904;2023-04-22T03:02:07;97522.06;;;7.81;87.91
46392;BME280;32098;49.448;7.904;2023-04-22T03:04:48;97361.41;;;6.78;88.69
46392;BME280;32098;49.448;7.904;2023-04-22T03:11:28;97337.00;;;6.57;89.24
46392;BME280;32098;49.448;7.904;2023-04-22T03:13:55;97468.94;;;7.28;90.18
46392;BME280;32098;49.448;7.904;2023-04-22T03:16:58;97492.53;;;7.36;90.07
46392;BME280;32098;49.448;7.904;2023-04-22T03:19:25;97491.03;;;7.40;90.26
46392;BME280;32098;49.448;7.904;2023-04-22T03:21:52;97500.09;;;7.21;90.81
46392;BME280;32098;49.448;7.904;2023-04-22T03:24:19;97346.44;;;6.42;90.45
46392;BME280;32098;49.448;7.904;2023-04-22T03:26:49;97412.59;;;6.96;89.72
46392;BME280;32098;49.448;7.904;2023-04-22T03:29:17;97355.22;;;6.54;89.33
46392;BME280;32098;49.448;7.904;2023-04-22T03:31:44;97427.84;;;7.01;88.67
46392;BME280;32098;49.448;7.904;2023-04-22T03:34:11;97490.00;;;7.41;88.78
46392;BME280;32098;49.448;7.904;2023-04-22T03:36:37;97517.84;;;7.50;87.98
46392;BME280;32098;49.448;7.904;2023-04-22T03:39:05;97501.69;;;7.52;87.13
46392;BME280;32098;49.448;7.904;2023-04-22T03:41:33;97488.63;;;7.50;87.58
46392;BME280;32098;49.448;7.904;2023-04-22T03:44:00;97400.09;;;6.85;88.54
46392;BME280;32098;49.448;7.904;2023-04-22T03:46:28;97350.28;;;6.57;87.99
46392;BME280;32098;49.448;7.904;2023-04-22T03:49:09;97470.59;;;7.11;88.42
46392;BME280;32098;49.448;7.904;2023-04-22T03:51:36;97459.38;;;7.27;88.68
46392;BME280;32098;49.448;7.904;2023-04-22T03:54:08;97503.59;;;7.33;88.32
46392;BME280;32098;49.448;7.904;2023-04-22T04:00:43;97427.44;;;6.86;89.21
46392;BME280;32098;49.448;7.904;2023-04-22T04:03:14;97468.69;;;7.00;90.23
46392;BME280;32098;49.448;7.904;2023-04-22T04:09:44;97437.91;;;6.81;90.21
46392;BME280;32098;49.448;7.904;2023-04-22T04:12:11;97307.53;;;5.88;90.88
46392;BME280;32098;49.448;7.904;2023-04-22T04:18:49;97384.34;;;6.42;90.11
46392;BME280;32098;49.448;7.904;2023-04-22T04:25:32;97393.19;;;6.36;90.46
46392;BME280;32098;49.448;7.904;2023-04-22T04:28:06;97175.25;;;5.02;91.30
46392;BME280;32098;49.448;7.904;2023-04-22T04:30:37;97453.47;;;6.77;91.92
46392;BME280;32098;49.448;7.904;2023-04-22T04:33:30;97455.75;;;6.92;91.45
46392;BME280;32098;49.448;7.904;2023-04-22T04:35:59;97378.50;;;6.52;90.27
46392;BME280;32098;49.448;7.904;2023-04-22T04:38:30;97379.66;;;6.26;91.54
46392;BME280;32098;49.448;7.904;2023-04-22T04:40:57;97385.97;;;6.43;91.27
46392;BME280;32098;49.448;7.904;2023-04-22T04:43:25;97319.09;;;6.12;90.32
46392;BME280;32098;49.448;7.904;2023-04-22T04:46:01;97397.88;;;6.52;89.87
46392;BME280;32098;49.448;7.904;2023-04-22T04:48:33;97305.31;;;6.03;89.99
46392;BME280;32098;49.448;7.904;2023-04-22T04:51:06;97016.91;;;4.15;90.29
46392;BME280;32098;49.448;7.904;2023-04-22T04:53:39;97334.97;;;6.12;91.13
46392;BME280;32098;49.448;7.904;2023-04-22T04:56:19;97462.34;;;7.01;90.05
46392;BME280;32098;49.448;7.904;2023-04-22T04:59:23;97463.06;;;7.08;89.92
46392;BME280;32098;49.448;7.904;2023-04-22T05:02:13;97461.47;;;7.07;90.02
46392;BME280;32098;49.448;7.904;2023-04-22T05:05:02;97472.09;;;7.07;89.25
46392;BME280;32098;49.448;7.904;2023-04-22T05:07:29;97372.47;;;6.45;88.87
46392;BME280;32098;49.448;7.904;2023-04-22T05:09:56;97489.34;;;6.98;89.26
46392;BME280;32098;49.448;7.904;2023-04-22T05:12:23;97421.84;;;6.46;89.92
46392;BME280;32098;49.448;7.904;2023-04-22T05:14:50;97415.97;;;6.44;89.14
46392;BME280;32098;49.448;7.904;2023-04-22T05:20:30;97490.53;;;7.02;89.22
46392;BME280;32098;49.448;7.904;2023-04-22T05:23:01;97227.81;;;5.42;88.50
46392;BME280;32098;49.448;7.904;2023-04-22T05:25:28;97424.75;;;6.74;88.45
46392;BME280;32098;49.448;7.904;2023-04-22T05:28:09;97432.91;;;7.02;88.45
46392;BME280;32098;49.448;7.904;2023-04-22T05:30:44;97505.06;;;7.70;86.51
46392;BME280;32098;49.448;7.904;2023-04-22T05:33:10;97447.41;;;7.71;85.16
46392;BME280;32098;49.448;7.904;2023-04-22T05:35:44;97466.59;;;8.08;83.34
46392;BME280;32098;49.448;7.904;2023-04-22T05:38:12;97276.66;;;6.94;81.44
46392;BME280;32098;49.448;7.904;2023-04-22T05:40:40;97443.22;;;8.44;82.80
46392;BME280;32098;49.448;7.904;2023-04-22T05:43:10;97397.69;;;8.69;82.27
46392;BME280;32098;49.448;7.904;2023-04-22T05:45:40;97505.91;;;9.93;78.77
46392;BME280;32098;49.448;7.904;2023-04-22T05:48:26;97494.72;;;10.46;74.53
46392;BME280;32098;49.448;7.904;2023-04-22T05:51:02;97336.84;;;9.94;73.20
46392;BME280;32098;49.448;7.904;2023-04-22T05:53:37;97362.72;;;10.59;71.50
46392;BME280;32098;49.448;7.904;2023-04-22T05:56:04;97490.25;;;12.02;69.12
46392;BME280;32098;49.448;7.904;2023-04-22T05:58:32;97417.16;;;11.96;67.51
46392;BME280;32098;49.448;7.904;2023-04-22T06:01:06;97384.75;;;11.88;65.82
46392;BME280;32098;49.448;7.904;2023-04-22T06:03:54;97287.78;;;11.70;65.30
46392;BME280;32098;49.448;7.904;2023-04-22T06:06:24;97145.34;;;10.86;63.23
46392;BME280;32098;49.448;7.904;2023-04-22T06:08:52;97365.41;;;12.22;65.10
46392;BME280;32098;49.448;7.904;2023-04-22T06:11:30;97417.56;;;12.62;66.42
46392;BME280;32098;49.448;7.904;2023-04-22T06:14:00;97413.59;;;12.79;64.92
46392;BME280;32098;49.448;7.904;2023-04-22T06:16:28;97345.47;;;12.50;64.60
46392;BME280;32098;49.448;7.904;2023-04-22T06:22:55;97469.47;;;13.23;65.31
46392;BME280;32098;49.448;7.904;2023-04-22T06:25:22;97474.75;;;12.92;64.57
46392;BME280;32098;49.448;7.904;2023-04-22T06:32:20;97472.25;;;12.76;66.26
46392;BME280;32098;49.448;7.904;2023-04-22T06:34:47;97327.84;;;11.55;66.17
46392;BME280;32098;49.448;7.904;2023-04-22T06:37:14;97334.34;;;11.69;68.31
46392;BME280;32098;49.448;7.904;2023-04-22T06:43:43;97288.34;;;10.99;69.45
46392;BME280;32098;49.448;7.904;2023-04-22T06:47:01;97426.47;;;11.89;69.72
46392;BME280;32098;49.448;7.904;2023-04-22T06:50:07;97482.22;;;12.38;70.30
46392;BME280;32098;49.448;7.904;2023-04-22T06:55:39;97256.00;;;11.74;69.64
46392;BME280;32098;49.448;7.904;2023-04-22T07:02:01;97474.34;;;14.37;62.77
46392;BME280;32098;49.448;7.904;2023-04-22T07:08:49;97468.06;;;15.35;61.02
46392;BME280;32098;49.448;7.904;2023-04-22T07:11:16;97248.25;;;14.24;57.05
46392;BME280;32098;49.448;7.904;2023-04-22T07:14:03;97364.53;;;15.67;56.45
46392;BME280;32098;49.448;7.904;2023-04-22T07:17:02;97474.19;;;16.76;53.39
46392;BME280;32098;49.448;7.904;2023-04-22T07:19:29;97112.28;;;15.01;53.79
46392;BME280;32098;49.448;7.904;2023-04-22T07:21:58;97496.06;;;17.59;53.62
46392;BME280;32098;49.448;7.904;2023-04-22T07:24:25;97356.78;;;17.21;53.20
46392;BME280;32098;49.448;7.904;2023-04-22T07:26:52;97359.66;;;17.62;52.48
46392;BME280;32098;49.448;7.904;2023-04-22T07:29:19;97274.41;;;17.42;50.66
46392;BME280;32098;49.448;7.904;2023-04-22T07:31:46;97475.59;;;18.96;49.94
46392;BME280;32098;49.448;7.904;2023-04-22T07:34:14;97404.06;;;18.88;49.73
46392;BME280;32098;49.448;7.904;2023-04-22T07:36:41;97358.94;;;18.84;49.72
46392;BME280;32098;49.448;7.904;2023-04-22T07:43:08;97430.75;;;19.53;45.82
46392;BME280;32098;49.448;7.904;2023-04-22T07:45:35;97430.75;;;19.53;44.43
46392;BME280;32098;49.448;7.904;2023-04-22T07:48:02;97435.38;;;19.52;43.05
46392;BME280;32098;49.448;7.904;2023-04-22T07:50:29;97425.19;;;19.49;41.75
46392;BME280;32098;49.448;7.904;2023-04-22T08:08:34;97439.56;;;20.47;38.82
46392;BME280;32098;49.448;7.904;2023-04-22T08:14:30;97432.72;;;20.97;38.51
46392;BME280;32098;49.448;7.904;2023-04-22T08:24:50;97249.66;;;19.82;37.09
46392;BME280;32098;49.448;7.904;2023-04-22T08:31:00;97401.59;;;20.47;35.58
46392;BME280;32098;49.448;7.904;2023-04-22T08:33:27;97437.63;;;20.39;36.03
46392;BME280;32098;49.448;7.904;2023-04-22T08:36:36;97411.41;;;19.81;36.24
46392;BME280;32098;49.448;7.904;2023-04-22T08:39:03;97306.88;;;18.64;35.87
46392;BME280;32098;49.448;7.904;2023-04-22T08:41:33;97312.31;;;18.51;36.67
46392;BME280;32098;49.448;7.904;2023-04-22T08:44:00;97302.03;;;18.39;37.68
46392;BME280;32098;49.448;7.904;2023-04-22T08:49:41;97416.59;;;19.33;36.81
46392;BME280;32098;49.448;7.904;2023-04-22T08:52:08;97346.34;;;18.65;35.44
46392;BME280;32098;49.448;7.904;2023-04-22T08:54:37;97296.47;;;18.58;36.73
46392;BME280;32098;49.448;7.904;2023-04-22T09:00:30;97410.97;;;19.88;36.27
46392;BME280;32098;49.448;7.904;2023-04-22T09:03:01;97235.59;;;18.83;35.23
46392;BME280;32098;49.448;7.904;2023-04-22T09:09:31;97251.34;;;19.16;35.08
46392;BME280;32098;49.448;7.904;2023-04-22T09:11:58;97406.16;;;19.85;34.13
46392;BME280;32098;49.448;7.904;2023-04-22T09:14:41;97393.00;;;19.70;34.94
46392;BME280;32098;49.448;7.904;2023-04-22T09:17:08;97173.28;;;18.30;35.57
46392;BME280;32098;49.448;7.904;2023-04-22T09:22:51;97385.22;;;19.99;35.54
46392;BME280;32098;49.448;7.904;2023-04-22T09:28:48;97195.34;;;19.03;34.44
46392;BME280;32098;49.448;7.904;2023-04-22T09:31:25;97370.00;;;20.12;34.33
46392;BME280;32098;49.448;7.904;2023-04-22T09:33:55;97235.09;;;19.16;34.68
46392;BME280;32098;49.448;7.904;2023-04-22T09:36:25;97154.94;;;18.62;34.18
46392;BME280;32098;49.448;7.904;2023-04-22T09:39:01;97334.25;;;19.79;34.51
46392;BME280;32098;49.448;7.904;2023-04-22T09:41:36;97397.91;;;20.12;34.56
46392;BME280;32098;49.448;7.904;2023-04-22T09:44:14;97390.66;;;19.99;34.71
46392;BME280;32098;49.448;7.904;2023-04-22T09:46:42;97177.34;;;18.77;34.92
46392;BME280;32098;49.448;7.904;2023-04-22T09:49:15;97333.66;;;19.82;34.75
46392;BME280;32098;49.448;7.904;2023-04-22T09:51:42;97354.69;;;20.16;34.83
46392;BME280;32098;49.448;7.904;2023-04-22T09:54:09;97181.75;;;18.95;34.78
46392;BME280;32098;49.448;7.904;2023-04-22T09:56:52;97251.75;;;19.32;34.38
46392;BME280;32098;49.448;7.904;2023-04-22T09:59:22;97164.81;;;18.67;34.47
46392;BME280;32098;49.448;7.904;2023-04-22T10:01:51;97153.78;;;18.55;34.96
46392;BME280;32098;49.448;7.904;2023-04-22T10:07:46;97266.19;;;19.72;35.29
46392;BME280;32098;49.448;7.904;2023-04-22T10:10:13;97097.88;;;18.86;35.58
46392;BME280;32098;49.448;7.904;2023-04-22T10:13:02;97384.53;;;21.11;34.71
46392;BME280;32098;49.448;7.904;2023-04-22T10:15:37;97359.44;;;20.97;33.90
46392;BME280;32098;49.448;7.904;2023-04-22T10:18:06;97175.50;;;19.69;33.69
46392;BME280;32098;49.448;7.904;2023-04-22T10:20:47;97265.06;;;20.12;34.16
46392;BME280;32098;49.448;7.904;2023-04-22T10:23:21;97265.56;;;20.14;34.51
46392;BME280;32098;49.448;7.904;2023-04-22T10:25:51;97175.22;;;19.49;34.23
46392;BME280;32098;49.448;7.904;2023-04-22T10:28:20;97220.53;;;19.96;34.35
46392;BME280;32098;49.448;7.904;2023-04-22T10:30:47;97372.84;;;21.02;35.33
46392;BME280;32098;49.448;7.904;2023-04-22T10:36:31;97144.88;;;19.29;34.19
46392;BME280;32098;49.448;7.904;2023-04-22T10:41:28;97238.81;;;19.60;34.66
46392;BME280;32098;49.448;7.904;2023-04-22T10:48:02;97351.63;;;20.39;34.73
46392;BME280;32098;49.448;7.904;2023-04-22T10:50:30;97354.66;;;20.38;35.05
46392;BME280;32098;49.448;7.904;2023-04-22T10:57:13;97335.41;;;20.17;35.03
46392;BME280;32098;49.448;7.904;2023-04-22T10:59:51;97156.13;;;18.92;34.38
46392;BME280;32098;49.448;7.904;2023-04-22T11:05:23;97367.56;;;20.10;33.98
46392;BME280;32098;49.448;7.904;2023-04-22T11:07:54;97273.78;;;19.70;34.53
46392;BME280;32098;49.448;7.904;2023-04-22T11:10:33;97373.81;;;20.11;34.48
46392;BME280;32098;49.448;7.904;2023-04-22T11:13:09;97379.94;;;19.94;34.69
46392;BME280;32098;49.448;7.904;2023-04-22T11:15:38;97370.16;;;20.15;34.98
46392;BME280;32098;49.448;7.904;2023-04-22T11:18:12;97264.81;;;19.61;34.47
46392;BME280;32098;49.448;7.904;2023-04-22T11:21:06;97374.28;;;20.43;34.91
46392;BME280;32098;49.448;7.904;2023-04-22T11:23:34;97415.19;;;20.55;34.85
46392;BME280;32098;49.448;7.904;2023-04-22T11:26:04;97370.81;;;20.51;34.25
46392;BME280;32098;49.448;7.904;2023-04-22T11:28:31;97381.38;;;20.62;34.99
46392;BME280;32098;49.448;7.904;2023-04-22T11:31:06;97275.31;;;19.84;35.34
46392;BME280;32098;49.448;7.904;2023-04-22T11:37:46;97378.53;;;20.05;35.52
46392;BME280;32098;49.448;7.904;2023-04-22T11:40:15;97240.06;;;19.23;35.87
46392;BME280;32098;49.448;7.904;2023-04-22T11:42:58;97151.31;;;18.67;35.63
46392;BME280;32098;49.448;7.904;2023-04-22T11:45:26;97366.59;;;20.06;35.74
46392;BME280;32098;49.448;7.904;2023-04-22T11:55:48;97387.25;;;19.93;35.80
46392;BME280;32098;49.448;7.904;2023-04-22T12:02:36;97288.13;;;18.19;35.51
46392;BME280;32098;49.448;7.904;2023-04-22T12:09:03;97396.03;;;18.56;36.10
46392;BME280;32098;49.448;7.904;2023-04-22T12:19:46;97282.97;;;17.12;36.21
46392;BME280;32098;49.448;7.904;2023-04-22T12:22:31;97399.09;;;17.76;36.68
46392;BME280;32098;49.448;7.904;2023-04-22T12:24:59;97412.63;;;17.58;37.01
46392;BME280;32098;49.448;7.904;2023-04-22T12:27:27;97417.38;;;17.47;37.24
46392;BME280;32098;49.448;7.904;2023-04-22T12:29:55;97385.53;;;17.49;38.38
46392;BME280;32098;49.448;7.904;2023-04-22T12:32:25;97284.69;;;16.70;39.12
46392;BME280;32098;49.448;7.904;2023-04-22T12:38:52;97436.31;;;17.05;40.19
46392;BME280;32098;49.448;7.904;2023-04-22T12:45:20;97314.00;;;16.11;40.94
46392;BME280;32098;49.448;7.904;2023-04-22T12:51:48;97439.81;;;16.63;41.98
46392;BME280;32098;49.448;7.904;2023-04-22T12:54:15;97439.56;;;16.59;42.81
46392;BME280;32098;49.448;7.904;2023-04-22T12:56:44;97284.53;;;15.72;42.85
46392;BME280;32098;49.448;7.904;2023-04-22T12:59:11;97443.19;;;16.73;42.86
46392;BME280;32098;49.448;7.904;2023-04-22T13:01:57;97393.53;;;16.27;43.22
46392;BME280;32098;49.448;7.904;2023-04-22T13:08:25;97434.34;;;16.15;44.06
46392;BME280;32098;49.448;7.904;2023-04-22T13:11:30;97454.19;;;16.25;44.42
46392;BME280;32098;49.448;7.904;2023-04-22T13:13:57;97309.44;;;14.86;43.68
46392;BME280;32098;49.448;7.904;2023-04-22T13:16:24;97237.00;;;14.66;44.37
46392;BME280;32098;49.448;7.904;2023-04-22T13:18:51;97491.16;;;16.19;44.07
46392;BME280;32098;49.448;7.904;2023-04-22T13:25:17;97447.91;;;16.34;42.94
46392;BME280;32098;49.448;7.904;2023-04-22T13:31:46;97441.19;;;16.60;42.72
46392;BME280;32098;49.448;7.904;2023-04-22T13:34:13;97374.63;;;16.32;42.28
46392;BME280;32098;49.448;7.904;2023-04-22T13:36:41;97430.59;;;16.88;42.40
46392;BME280;32098;49.448;7.904;2023-04-22T13:39:07;97254.88;;;16.01;42.14
46392;BME280;32098;49.448;7.904;2023-04-22T13:44:56;97290.34;;;16.27;41.36
46392;BME280;32098;49.448;7.904;2023-04-22T13:47:27;97432.66;;;17.14;41.47
46392;BME280;32098;49.448;7.904;2023-04-22T13:49:54;97446.91;;;17.20;41.33
46392;BME280;32098;49.448;7.904;2023-04-22T13:52:57;97412.41;;;17.17;40.73
46392;BME280;32098;49.448;7.904;2023-04-22T13:58:32;97414.97;;;17.08;41.12
46392;BME280;32098;49.448;7.904;2023-04-22T14:01:12;97407.22;;;17.20;40.70
46392;BME280;32098;49.448;7.904;2023-04-22T14:03:39;97150.88;;;15.63;40.75
46392;BME280;32098;49.448;7.904;2023-04-22T14:06:06;97393.44;;;17.22;40.70
46392;BME280;32098;49.448;7.904;2023-04-22T14:08:33;97168.91;;;15.86;40.68
46392;BME280;32098;49.448;7.904;2023-04-22T14:11:06;97316.97;;;16.94;40.61
46392;BME280;32098;49.448;7.904;2023-04-22T14:13:34;97334.47;;;16.78;40.07
46392;BME280;32098;49.448;7.904;2023-04-22T14:16:05;97365.75;;;16.98;40.35
46392;BME280;32098;49.448;7.904;2023-04-22T14:18:36;97346.50;;;16.86;40.63
46392;BME280;32098;49.448;7.904;2023-04-22T14:21:07;97408.53;;;17.04;40.28
46392;BME280;32098;49.448;7.904;2023-04-22T14:23:38;97402.72;;;17.16;41.13
46392;BME280;32098;49.448;7.904;2023-04-22T14:26:07;97270.19;;;16.24;40.89
46392;BME280;32098;49.448;7.904;2023-04-22T14:28:50;97373.53;;;16.80;40.86
46392;BME280;32098;49.448;7.904;2023-04-22T14:31:17;97397.44;;;16.87;40.91
46392;BME280;32098;49.448;7.904;2023-04-22T14:33:45;97439.56;;;17.02;41.02
46392;BME280;32098;49.448;7.904;2023-04-22T14:36:44;97394.91;;;17.14;40.74
46392;BME280;32098;49.448;7.904;2023-04-22T14:39:11;97304.91;;;16.49;40.79
46392;BME280;32098;49.448;7.904;2023-04-22T14:45:21;97303.41;;;16.62;40.90
46392;BME280;32098;49.448;7.904;2023-04-22T14:47:48;97354.66;;;16.80;41.07
46392;BME280;32098;49.448;7.904;2023-04-22T14:50:15;97391.34;;;17.19;41.68
46392;BME280;32098;49.448;7.904;2023-04-22T14:52:42;97297.38;;;16.51;41.27
46392;BME280;32098;49.448;7.904;2023-04-22T14:55:09;97391.84;;;17.21;41.42
46392;BME280;32098;49.448;7.904;2023-04-22T14:57:51;97171.03;;;15.65;41.12
46392;BME280;32098;49.448;7.904;2023-04-22T15:04:13;97394.81;;;17.19;41.18
46392;BME280;32098;49.448;7.904;2023-04-22T15:10:51;97388.88;;;17.04;41.98
46392;BME280;32098;49.448;7.904;2023-04-22T15:13:18;97342.59;;;16.54;41.87
46392;BME280;32098;49.448;7.904;2023-04-22T15:15:48;97168.28;;;15.46;41.55
46392;BME280;32098;49.448;7.904;2023-04-22T15:18:14;97272.59;;;16.26;41.63
46392;BME280;32098;49.448;7.904;2023-04-22T15:20:41;97292.53;;;16.25;41.96
46392;BME280;32098;49.448;7.904;2023-04-22T15:27:08;97390.53;;;17.00;42.06
46392;BME280;32098;49.448;7.904;2023-04-22T15:29:35;97388.88;;;17.04;41.86
46392;BME280;32098;49.448;7.904;2023-04-22T15:32:02;97348.38;;;16.66;42.05
46392;BME280;32098;49.448;7.904;2023-04-22T15:34:29;97404.00;;;17.00;42.29
46392;BME280;32098;49.448;7.904;2023-04-22T15:44:28;97387.03;;;17.18;42.19
46392;BME280;32098;49.448;7.904;2023-04-22T15:46:56;97236.59;;;16.16;42.17
46392;BME280;32098;49.448;7.904;2023-04-22T15:49:25;97160.31;;;15.60;42.75
46392;BME280;32098;49.448;7.904;2023-04-22T15:51:52;97182.00;;;15.92;42.64
46392;BME280;32098;49.448;7.904;2023-04-22T15:54:21;97390.97;;;17.07;42.69
46392;BME280;32098;49.448;7.904;2023-04-22T15:57:07;97372.28;;;16.92;43.08
46392;BME280;32098;49.448;7.904;2023-04-22T16:04:09;97378.34;;;17.02;43.41
46392;BME280;32098;49.448;7.904;2023-04-22T16:10:00;97311.25;;;16.40;43.75
46392;BME280;32098;49.448;7.904;2023-04-22T16:26:44;97196.13;;;15.03;44.39
46392;BME280;32098;49.448;7.904;2023-04-22T16:32:35;97293.16;;;15.40;45.33
46392;BME280;32098;49.448;7.904;2023-04-22T16:35:02;97065.00;;;14.04;45.62
46392;BME280;32098;49.448;7.904;2023-04-22T16:37:29;97439.28;;;16.08;46.08
46392;BME280;32098;49.448;7.904;2023-04-22T16:39:57;97140.44;;;14.41;46.26
46392;BME280;32098;49.448;7.904;2023-04-22T16:42:23;97285.78;;;15.22;47.04
46392;BME280;32098;49.448;7.904;2023-04-22T16:51:59;97441.44;;;15.78;48.70
46392;BME280;32098;49.448;7.904;2023-04-22T16:54:52;97439.69;;;15.58;49.30
46392;BME280;32098;49.448;7.904;2023-04-22T16:57:19;97179.97;;;13.92;49.94
46392;BME280;32098;49.448;7.904;2023-04-22T16:59:46;97246.72;;;14.13;50.59
46392;BME280;32098;49.448;7.904;2023-04-22T17:06:13;97436.75;;;15.54;50.84
46392;BME280;32098;49.448;7.904;2023-04-22T17:08:40;97310.16;;;14.58;51.56
46392;BME280;32098;49.448;7.904;2023-04-22T17:15:11;97459.41;;;15.43;52.00
46392;BME280;32098;49.448;7.904;2023-04-22T17:18:59;97438.25;;;15.27;52.79
46392;BME280;32098;49.448;7.904;2023-04-22T17:21:26;97123.91;;;13.06;52.83
46392;BME280;32098;49.448;7.904;2023-04-22T17:23:56;97473.03;;;15.18;53.27
46392;BME280;32098;49.448;7.904;2023-04-22T17:26:24;97196.47;;;13.50;53.31
46392;BME280;32098;49.448;7.904;2023-04-22T17:31:59;97115.63;;;12.97;53.82
46392;BME280;32098;49.448;7.904;2023-04-22T17:34:26;97201.31;;;13.58;54.17
46392;BME280;32098;49.448;7.904;2023-04-22T17:36:53;97218.75;;;13.55;54.06
46392;BME280;32098;49.448;7.904;2023-04-22T17:39:20;97223.56;;;13.43;54.29
46392;BME280;32098;49.448;7.904;2023-04-22T17:45:12;97474.22;;;14.92;55.52
46392;BME280;32098;49.448;7.904;2023-04-22T17:54:57;97458.66;;;14.79;56.14
46392;BME280;32098;49.448;7.904;2023-04-22T17:57:34;97394.34;;;14.23;56.46
46392;BME280;32098;49.448;7.904;2023-04-22T18:00:02;97395.69;;;14.21;56.96
46392;BME280;32098;49.448;7.904;2023-04-22T18:06:04;97340.22;;;13.66;57.88
46392;BME280;32098;49.448;7.904;2023-04-22T18:08:32;97491.53;;;14.46;59.16
46392;BME280;32098;49.448;7.904;2023-04-22T18:10:59;97033.44;;;11.52;59.35
46392;BME280;32098;49.448;7.904;2023-04-22T18:13:27;97350.94;;;13.51;60.12
46392;BME280;32098;49.448;7.904;2023-04-22T18:15:54;97219.59;;;12.45;60.33
46392;BME280;32098;49.448;7.904;2023-04-22T18:18:21;97522.72;;;14.16;60.70
46392;BME280;32098;49.448;7.904;2023-04-22T18:20:48;97346.69;;;13.35;60.59
46392;BME280;32098;49.448;7.904;2023-04-22T18:23:19;97486.75;;;14.12;60.91
46392;BME280;32098;49.448;7.904;2023-04-22T18:25:47;97229.72;;;12.28;61.11